sensor_id;sensor_type;location;lat;lon;timestamp;pressure;altitude;pressure_sealevel;temperature;humidity
20027;BME280;10174;42.688;23.344;2023-07-31T00:01:52;94958.91;;;20.68;85.38
20027;BME280;10174;42.688;23.344;2023-07-31T00:04:18;94966.88;;;20.73;85.10
20027;BME280;10174;42.688;23.344;2023-07-31T00:06:43;94883.34;;;20.14;85.42
20027;BME280;10174;42.688;23.344;2023-07-31T00:09:08;94948.88;;;20.60;84.89
20027;BME280;10174;42.688;23.344;2023-07-31T00:11:34;94950.16;;;20.75;82.69
20027;BME280;10174;42.688;23.344;2023-07-31T00:13:59;94968.31;;;21.04;81.98
20027;BME280;10174;42.688;23.344;2023-07-31T00:16:25;94881.72;;;20.34;81.32
20027;BME280;10174;42.688;23.344;2023-07-31T00:18:50;94969.66;;;20.86;82.51
20027;BME280;10174;42.688;23.344;2023-07-31T00:21:16;94972.25;;;20.82;83.24
20027;BME280;10174;42.688;23.344;2023-07-31T00:23:41;94958.19;;;20.92;82.89
20027;BME280;10174;42.688;23.344;2023-07-31T00:26:06;94969.22;;;20.96;82.53
20027;BME280;10174;42.688;23.344;2023-07-31T00:28:32;94957.03;;;20.93;83.00
20027;BME280;10174;42.688;23.344;2023-07-31T00:30:57;94958.53;;;20.91;83.56
20027;BME280;10174;42.688;23.344;2023-07-31T00:33:22;94839.13;;;20.08;84.83
20027;BME280;10174;42.688;23.344;2023-07-31T00:35:48;94939.63;;;20.86;84.75
20027;BME280;10174;42.688;23.344;2023-07-31T00:38:14;94933.00;;;20.74;85.19
20027;BME280;10174;42.688;23.344;2023-07-31T00:40:39;94917.84;;;20.64;86.68
20027;BME280;10174;42.688;23.344;2023-07-31T00:43:05;94837.53;;;20.07;87.92
20027;BME280;10174;42.688;23.344;2023-07-31T00:45:31;94842.19;;;20.07;87.68
20027;BME280;10174;42.688;23.344;2023-07-31T00:47:56;94839.47;;;20.07;89.22
20027;BME280;10174;42.688;23.344;2023-07-31T00:50:24;94940.09;;;20.54;88.84
20027;BME280;10174;42.688;23.344;2023-07-31T00:52:50;94937.03;;;20.56;89.50
20027;BME280;10174;42.688;23.344;2023-07-31T00:55:16;94934.91;;;20.40;89.15
20027;BME280;10174;42.688;23.344;2023-07-31T00:57:42;94843.84;;;19.57;91.31
20027;BME280;10174;42.688;23.344;2023-07-31T01:00:08;94948.63;;;20.10;92.37
20027;BME280;10174;42.688;23.344;2023-07-31T01:02:34;94937.25;;;20.08;92.71
20027;BME280;10174;42.688;23.344;2023-07-31T01:05:01;94931.88;;;20.00;94.09
20027;BME280;10174;42.688;23.344;2023-07-31T01:07:34;94910.34;;;19.86;94.09
20027;BME280;10174;42.688;23.344;2023-07-31T01:10:11;94930.34;;;19.90;94.29
20027;BME280;10174;42.688;23.344;2023-07-31T01:12:41;94840.50;;;19.30;95.05
20027;BME280;10174;42.688;23.344;2023-07-31T01:15:08;94913.72;;;19.83;94.88
20027;BME280;10174;42.688;23.344;2023-07-31T01:17:38;94922.56;;;20.01;94.51
20027;BME280;10174;42.688;23.344;2023-07-31T01:20:05;94865.38;;;19.71;94.32
20027;BME280;10174;42.688;23.344;2023-07-31T01:23:03;94916.97;;;19.97;94.52
20027;BME280;10174;42.688;23.344;2023-07-31T01:31:02;94901.69;;;19.84;95.68
20027;BME280;10174;42.688;23.344;2023-07-31T01:33:29;94909.00;;;19.92;95.95
20027;BME280;10174;42.688;23.344;2023-07-31T01:35:56;94912.19;;;19.94;95.89
20027;BME280;10174;42.688;23.344;2023-07-31T01:38:22;94817.78;;;19.26;96.08
20027;BME280;10174;42.688;23.344;2023-07-31T01:40:51;94841.91;;;19.36;97.01
20027;BME280;10174;42.688;23.344;2023-07-31T01:43:17;94920.94;;;19.79;97.00
20027;BME280;10174;42.688;23.344;2023-07-31T01:45:43;94901.59;;;19.71;97.52
20027;BME280;10174;42.688;23.344;2023-07-31T01:48:08;94889.94;;;19.62;97.83
20027;BME280;10174;42.688;23.344;2023-07-31T01:50:34;94930.44;;;19.72;98.10
20027;BME280;10174;42.688;23.344;2023-07-31T01:52:59;94919.44;;;19.60;99.12
20027;BME280;10174;42.688;23.344;2023-07-31T01:55:24;94916.69;;;19.69;99.25
20027;BME280;10174;42.688;23.344;2023-07-31T01:57:51;94925.97;;;19.68;99.14
20027;BME280;10174;42.688;23.344;2023-07-31T02:00:17;94899.75;;;19.54;99.66
20027;BME280;10174;42.688;23.344;2023-07-31T02:02:43;94919.31;;;19.56;100.00
20027;BME280;10174;42.688;23.344;2023-07-31T02:05:08;94919.72;;;19.67;100.00
20027;BME280;10174;42.688;23.344;2023-07-31T02:07:33;94854.28;;;19.25;99.78
20027;BME280;10174;42.688;23.344;2023-07-31T02:09:59;94877.75;;;19.38;99.85
20027;BME280;10174;42.688;23.344;2023-07-31T02:12:24;94902.41;;;19.42;100.00
20027;BME280;10174;42.688;23.344;2023-07-31T02:14:50;94905.00;;;19.38;100.00
20027;BME280;10174;42.688;23.344;2023-07-31T02:17:15;94899.56;;;19.38;100.00
20027;BME280;10174;42.688;23.344;2023-07-31T02:19:40;94914.38;;;19.50;100.00
20027;BME280;10174;42.688;23.344;2023-07-31T02:22:06;94934.19;;;19.59;100.00
20027;BME280;10174;42.688;23.344;2023-07-31T02:24:31;94929.22;;;19.61;100.00
20027;BME280;10174;42.688;23.344;2023-07-31T02:26:57;94919.81;;;19.50;100.00
20027;BME280;10174;42.688;23.344;2023-07-31T02:29:22;94940.44;;;19.60;100.00
20027;BME280;10174;42.688;23.344;2023-07-31T02:31:48;94936.75;;;19.64;100.00
20027;BME280;10174;42.688;23.344;2023-07-31T02:34:13;94939.25;;;19.69;100.00
20027;BME280;10174;42.688;23.344;2023-07-31T02:36:39;94937.53;;;19.65;100.00
20027;BME280;10174;42.688;23.344;2023-07-31T02:39:04;94938.00;;;19.67;100.00
20027;BME280;10174;42.688;23.344;2023-07-31T02:41:30;94916.72;;;19.60;100.00
20027;BME280;10174;42.688;23.344;2023-07-31T02:43:55;94922.91;;;19.78;100.00
20027;BME280;10174;42.688;23.344;2023-07-31T02:46:20;94932.94;;;19.86;100.00
20027;BME280;10174;42.688;23.344;2023-07-31T02:48:49;94932.13;;;19.86;99.87
20027;BME280;10174;42.688;23.344;2023-07-31T02:51:14;94946.09;;;19.84;100.00
20027;BME280;10174;42.688;23.344;2023-07-31T02:53:40;94913.50;;;19.67;99.82
20027;BME280;10174;42.688;23.344;2023-07-31T02:56:05;94946.22;;;19.88;99.81
20027;BME280;10174;42.688;23.344;2023-07-31T02:58:30;94928.81;;;19.80;99.27
20027;BME280;10174;42.688;23.344;2023-07-31T03:00:58;94953.03;;;20.03;98.71
20027;BME280;10174;42.688;23.344;2023-07-31T03:03:23;94945.16;;;20.01;98.17
20027;BME280;10174;42.688;23.344;2023-07-31T03:05:49;94882.63;;;19.54;97.95
20027;BME280;10174;42.688;23.344;2023-07-31T03:08:14;94963.25;;;20.06;97.57
20027;BME280;10174;42.688;23.344;2023-07-31T03:10:40;94924.41;;;19.88;97.42
20027;BME280;10174;42.688;23.344;2023-07-31T03:13:06;94963.38;;;20.09;97.41
20027;BME280;10174;42.688;23.344;2023-07-31T03:15:31;94971.22;;;20.11;97.26
20027;BME280;10174;42.688;23.344;2023-07-31T03:17:57;94960.47;;;20.15;96.81
20027;BME280;10174;42.688;23.344;2023-07-31T03:20:22;94944.06;;;20.02;97.15
20027;BME280;10174;42.688;23.344;2023-07-31T03:22:47;94958.19;;;20.17;96.69
20027;BME280;10174;42.688;23.344;2023-07-31T03:25:13;94966.88;;;20.19;96.97
20027;BME280;10174;42.688;23.344;2023-07-31T03:27:39;94954.47;;;20.00;97.70
20027;BME280;10174;42.688;23.344;2023-07-31T03:30:05;94969.78;;;20.14;97.39
20027;BME280;10174;42.688;23.344;2023-07-31T03:32:31;94944.22;;;19.97;97.48
20027;BME280;10174;42.688;23.344;2023-07-31T03:34:57;94955.41;;;20.04;97.66
20027;BME280;10174;42.688;23.344;2023-07-31T03:37:22;94958.59;;;20.06;97.33
20027;BME280;10174;42.688;23.344;2023-07-31T03:39:48;94938.72;;;19.85;97.71
20027;BME280;10174;42.688;23.344;2023-07-31T03:42:13;94960.88;;;20.04;97.44
20027;BME280;10174;42.688;23.344;2023-07-31T03:44:38;94962.47;;;20.05;97.08
20027;BME280;10174;42.688;23.344;2023-07-31T03:47:04;94889.16;;;19.62;96.54
20027;BME280;10174;42.688;23.344;2023-07-31T03:49:30;94965.19;;;20.05;96.67
20027;BME280;10174;42.688;23.344;2023-07-31T03:51:56;94892.66;;;19.62;95.58
20027;BME280;10174;42.688;23.344;2023-07-31T03:54:21;94970.72;;;20.18;95.73
20027;BME280;10174;42.688;23.344;2023-07-31T03:56:46;94985.63;;;20.20;95.37
20027;BME280;10174;42.688;23.344;2023-07-31T03:59:12;94976.16;;;20.18;94.71
20027;BME280;10174;42.688;23.344;2023-07-31T04:01:37;94977.09;;;20.22;95.06
20027;BME280;10174;42.688;23.344;2023-07-31T04:04:03;94981.69;;;20.30;94.73
20027;BME280;10174;42.688;23.344;2023-07-31T04:06:28;94990.59;;;20.39;94.62
20027;BME280;10174;42.688;23.344;2023-07-31T04:08:53;94984.69;;;20.37;94.40
20027;BME280;10174;42.688;23.344;2023-07-31T04:11:19;94984.75;;;20.28;94.46
20027;BME280;10174;42.688;23.344;2023-07-31T04:13:44;94983.34;;;20.22;95.25
20027;BME280;10174;42.688;23.344;2023-07-31T04:16:09;94999.00;;;20.34;94.91
20027;BME280;10174;42.688;23.344;2023-07-31T04:18:35;94993.03;;;20.32;94.95
20027;BME280;10174;42.688;23.344;2023-07-31T04:21:00;94996.25;;;20.34;94.47
20027;BME280;10174;42.688;23.344;2023-07-31T04:23:27;94999.72;;;20.43;94.10
20027;BME280;10174;42.688;23.344;2023-07-31T04:25:53;94997.31;;;20.42;93.46
20027;BME280;10174;42.688;23.344;2023-07-31T04:28:18;94992.81;;;20.25;94.17
20027;BME280;10174;42.688;23.344;2023-07-31T04:30:44;95015.81;;;20.36;93.81
20027;BME280;10174;42.688;23.344;2023-07-31T04:33:09;95001.84;;;20.38;93.96
20027;BME280;10174;42.688;23.344;2023-07-31T04:35:34;94995.94;;;20.36;93.47
20027;BME280;10174;42.688;23.344;2023-07-31T04:38:00;94995.03;;;20.44;92.66
20027;BME280;10174;42.688;23.344;2023-07-31T04:40:26;94943.31;;;19.93;93.37
20027;BME280;10174;42.688;23.344;2023-07-31T04:42:51;94946.50;;;19.95;92.59
20027;BME280;10174;42.688;23.344;2023-07-31T04:45:16;94971.84;;;20.17;92.33
20027;BME280;10174;42.688;23.344;2023-07-31T04:47:42;94997.72;;;20.53;92.12
20027;BME280;10174;42.688;23.344;2023-07-31T04:50:07;94986.81;;;20.53;90.73
20027;BME280;10174;42.688;23.344;2023-07-31T04:52:33;94998.16;;;20.55;91.40
20027;BME280;10174;42.688;23.344;2023-07-31T04:54:58;94977.91;;;20.43;90.99
20027;BME280;10174;42.688;23.344;2023-07-31T04:57:24;95010.94;;;20.63;90.64
20027;BME280;10174;42.688;23.344;2023-07-31T04:59:49;95023.75;;;20.71;90.02
20027;BME280;10174;42.688;23.344;2023-07-31T05:02:15;95006.50;;;20.92;89.24
20027;BME280;10174;42.688;23.344;2023-07-31T05:04:40;94936.63;;;20.66;87.80
20027;BME280;10174;42.688;23.344;2023-07-31T05:07:05;94998.78;;;20.81;88.83
20027;BME280;10174;42.688;23.344;2023-07-31T05:09:31;94994.06;;;21.03;88.46
20027;BME280;10174;42.688;23.344;2023-07-31T05:11:56;94961.94;;;20.88;87.52
20027;BME280;10174;42.688;23.344;2023-07-31T05:14:21;95001.16;;;21.16;86.90
20027;BME280;10174;42.688;23.344;2023-07-31T05:16:47;94992.69;;;21.09;87.27
20027;BME280;10174;42.688;23.344;2023-07-31T05:19:12;94999.44;;;21.24;86.50
20027;BME280;10174;42.688;23.344;2023-07-31T05:21:38;94957.66;;;21.36;84.77
20027;BME280;10174;42.688;23.344;2023-07-31T05:24:03;94949.94;;;21.38;83.95
20027;BME280;10174;42.688;23.344;2023-07-31T05:26:29;94996.19;;;21.56;84.37
20027;BME280;10174;42.688;23.344;2023-07-31T05:28:54;94991.41;;;21.52;83.66
20027;BME280;10174;42.688;23.344;2023-07-31T05:31:19;94986.63;;;21.62;82.26
20027;BME280;10174;42.688;23.344;2023-07-31T05:33:46;95016.50;;;21.67;82.64
20027;BME280;10174;42.688;23.344;2023-07-31T05:36:11;95011.53;;;21.48;83.31
20027;BME280;10174;42.688;23.344;2023-07-31T05:38:37;94984.34;;;21.51;83.46
20027;BME280;10174;42.688;23.344;2023-07-31T05:41:02;94975.88;;;21.20;83.54
20027;BME280;10174;42.688;23.344;2023-07-31T05:43:27;94997.94;;;21.27;83.98
20027;BME280;10174;42.688;23.344;2023-07-31T05:45:53;94941.69;;;21.01;83.14
20027;BME280;10174;42.688;23.344;2023-07-31T05:48:18;94998.47;;;21.66;81.21
20027;BME280;10174;42.688;23.344;2023-07-31T05:50:44;95004.47;;;21.47;80.88
20027;BME280;10174;42.688;23.344;2023-07-31T05:53:09;94889.03;;;20.88;80.08
20027;BME280;10174;42.688;23.344;2023-07-31T05:55:35;94909.81;;;20.80;80.30
20027;BME280;10174;42.688;23.344;2023-07-31T05:58:01;94917.53;;;20.66;81.04
20027;BME280;10174;42.688;23.344;2023-07-31T06:00:26;94999.66;;;21.31;80.92
20027;BME280;10174;42.688;23.344;2023-07-31T06:02:53;95011.50;;;21.23;80.26
20027;BME280;10174;42.688;23.344;2023-07-31T06:05:18;95008.09;;;21.26;80.75
20027;BME280;10174;42.688;23.344;2023-07-31T06:07:44;95014.84;;;21.41;79.28
20027;BME280;10174;42.688;23.344;2023-07-31T06:10:09;95028.66;;;21.57;77.98
20027;BME280;10174;42.688;23.344;2023-07-31T06:12:35;95022.06;;;21.70;76.08
20027;BME280;10174;42.688;23.344;2023-07-31T06:15:03;95031.19;;;21.87;76.29
20027;BME280;10174;42.688;23.344;2023-07-31T06:17:29;95024.22;;;22.14;75.24
20027;BME280;10174;42.688;23.344;2023-07-31T06:19:56;95015.28;;;22.30;74.85
20027;BME280;10174;42.688;23.344;2023-07-31T06:22:22;95024.59;;;22.53;72.59
20027;BME280;10174;42.688;23.344;2023-07-31T06:24:47;95025.78;;;23.09;71.09
20027;BME280;10174;42.688;23.344;2023-07-31T06:27:13;95024.84;;;23.33;67.61
20027;BME280;10174;42.688;23.344;2023-07-31T06:29:38;95008.94;;;23.71;67.80
20027;BME280;10174;42.688;23.344;2023-07-31T06:32:04;94974.53;;;23.89;65.10
20027;BME280;10174;42.688;23.344;2023-07-31T06:34:29;95006.84;;;23.64;67.20
20027;BME280;10174;42.688;23.344;2023-07-31T06:36:56;94991.94;;;23.17;68.67
20027;BME280;10174;42.688;23.344;2023-07-31T06:39:21;94997.44;;;23.17;69.25
20027;BME280;10174;42.688;23.344;2023-07-31T06:41:47;94978.66;;;23.03;67.90
20027;BME280;10174;42.688;23.344;2023-07-31T06:44:12;94972.84;;;22.76;69.77
20027;BME280;10174;42.688;23.344;2023-07-31T06:46:38;94977.50;;;21.95;71.75
20027;BME280;10174;42.688;23.344;2023-07-31T06:49:03;94899.88;;;21.59;71.82
20027;BME280;10174;42.688;23.344;2023-07-31T06:51:28;94979.31;;;22.03;71.79
20027;BME280;10174;42.688;23.344;2023-07-31T06:53:56;95033.53;;;22.38;71.36
20027;BME280;10174;42.688;23.344;2023-07-31T06:56:22;95023.03;;;22.52;70.75
20027;BME280;10174;42.688;23.344;2023-07-31T06:58:47;95017.72;;;22.31;70.74
20027;BME280;10174;42.688;23.344;2023-07-31T07:01:13;95031.59;;;22.14;71.30
20027;BME280;10174;42.688;23.344;2023-07-31T07:03:38;94995.34;;;22.17;71.48
20027;BME280;10174;42.688;23.344;2023-07-31T07:06:03;94995.03;;;22.06;71.04
20027;BME280;10174;42.688;23.344;2023-07-31T07:08:29;94981.81;;;22.08;70.82
20027;BME280;10174;42.688;23.344;2023-07-31T07:10:54;95038.06;;;22.58;69.30
20027;BME280;10174;42.688;23.344;2023-07-31T07:13:21;95024.75;;;22.32;70.03
20027;BME280;10174;42.688;23.344;2023-07-31T07:15:50;95021.66;;;22.21;70.02
20027;BME280;10174;42.688;23.344;2023-07-31T07:18:16;94918.09;;;21.67;70.17
20027;BME280;10174;42.688;23.344;2023-07-31T07:20:51;94976.56;;;22.15;69.05
20027;BME280;10174;42.688;23.344;2023-07-31T07:23:17;95012.94;;;22.56;68.32
20027;BME280;10174;42.688;23.344;2023-07-31T07:25:44;94989.22;;;22.61;67.46
20027;BME280;10174;42.688;23.344;2023-07-31T07:28:10;95021.31;;;22.76;67.56
20027;BME280;10174;42.688;23.344;2023-07-31T07:30:35;95012.94;;;22.56;67.89
20027;BME280;10174;42.688;23.344;2023-07-31T07:33:01;95019.84;;;22.26;69.63
20027;BME280;10174;42.688;23.344;2023-07-31T07:35:26;95017.13;;;22.38;69.59
20027;BME280;10174;42.688;23.344;2023-07-31T07:37:52;95013.66;;;22.53;69.44
20027;BME280;10174;42.688;23.344;2023-07-31T07:40:18;95011.16;;;22.48;69.28
20027;BME280;10174;42.688;23.344;2023-07-31T07:42:44;94997.66;;;22.68;69.04
20027;BME280;10174;42.688;23.344;2023-07-31T07:45:09;95002.44;;;22.71;68.23
20027;BME280;10174;42.688;23.344;2023-07-31T07:47:35;95025.09;;;23.12;67.05
20027;BME280;10174;42.688;23.344;2023-07-31T07:50:00;95025.72;;;23.21;66.64
20027;BME280;10174;42.688;23.344;2023-07-31T07:52:25;95021.75;;;23.35;65.34
20027;BME280;10174;42.688;23.344;2023-07-31T07:54:51;95032.19;;;23.77;63.44
20027;BME280;10174;42.688;23.344;2023-07-31T07:57:16;95022.22;;;23.69;62.42
20027;BME280;10174;42.688;23.344;2023-07-31T07:59:42;95013.44;;;23.79;61.94
20027;BME280;10174;42.688;23.344;2023-07-31T08:02:08;95018.66;;;23.84;61.49
20027;BME280;10174;42.688;23.344;2023-07-31T08:04:34;94932.56;;;23.53;61.11
20027;BME280;10174;42.688;23.344;2023-07-31T08:06:59;95029.28;;;24.17;61.06
20027;BME280;10174;42.688;23.344;2023-07-31T08:09:25;95022.78;;;24.26;61.33
20027;BME280;10174;42.688;23.344;2023-07-31T08:11:50;95025.81;;;24.21;61.23
20027;BME280;10174;42.688;23.344;2023-07-31T08:14:16;95026.94;;;24.55;60.22
20027;BME280;10174;42.688;23.344;2023-07-31T08:16:41;95034.22;;;24.47;59.53
20027;BME280;10174;42.688;23.344;2023-07-31T08:19:06;95012.00;;;24.17;59.51
20027;BME280;10174;42.688;23.344;2023-07-31T08:21:32;95039.91;;;24.03;61.00
20027;BME280;10174;42.688;23.344;2023-07-31T08:23:57;95038.16;;;24.30;59.73
20027;BME280;10174;42.688;23.344;2023-07-31T08:26:22;95029.81;;;24.59;58.19
20027;BME280;10174;42.688;23.344;2023-07-31T08:28:48;95029.81;;;25.40;55.52
20027;BME280;10174;42.688;23.344;2023-07-31T08:31:13;95019.28;;;25.23;55.67
20027;BME280;10174;42.688;23.344;2023-07-31T08:33:39;95003.94;;;25.41;55.36
20027;BME280;10174;42.688;23.344;2023-07-31T08:36:05;95012.22;;;25.68;54.14
20027;BME280;10174;42.688;23.344;2023-07-31T08:38:31;95009.81;;;25.40;54.46
20027;BME280;10174;42.688;23.344;2023-07-31T08:40:57;95009.63;;;26.56;51.78
20027;BME280;10174;42.688;23.344;2023-07-31T08:43:26;95015.41;;;25.70;53.55
20027;BME280;10174;42.688;23.344;2023-07-31T08:45:52;95018.03;;;26.97;51.15
20027;BME280;10174;42.688;23.344;2023-07-31T08:48:20;95010.03;;;27.22;48.58
20027;BME280;10174;42.688;23.344;2023-07-31T08:50:46;95012.59;;;27.38;47.63
20027;BME280;10174;42.688;23.344;2023-07-31T08:53:11;94935.66;;;26.54;48.48
20027;BME280;10174;42.688;23.344;2023-07-31T08:55:38;95001.41;;;26.29;50.18
20027;BME280;10174;42.688;23.344;2023-07-31T08:58:04;95017.59;;;26.95;49.29
20027;BME280;10174;42.688;23.344;2023-07-31T09:00:32;94959.72;;;26.95;47.23
20027;BME280;10174;42.688;23.344;2023-07-31T09:03:01;95004.00;;;29.46;42.12
20027;BME280;10174;42.688;23.344;2023-07-31T09:05:29;95007.69;;;31.25;38.96
20027;BME280;10174;42.688;23.344;2023-07-31T09:07:56;95001.91;;;30.80;40.93
20027;BME280;10174;42.688;23.344;2023-07-31T09:10:22;95013.03;;;32.55;36.83
20027;BME280;10174;42.688;23.344;2023-07-31T09:12:48;95011.25;;;32.34;36.36
20027;BME280;10174;42.688;23.344;2023-07-31T09:15:14;95008.09;;;32.32;36.54
20027;BME280;10174;42.688;23.344;2023-07-31T09:17:40;95014.06;;;33.07;35.33
20027;BME280;10174;42.688;23.344;2023-07-31T09:20:20;95001.13;;;31.64;37.79
20027;BME280;10174;42.688;23.344;2023-07-31T09:22:47;94972.88;;;31.17;38.44
20027;BME280;10174;42.688;23.344;2023-07-31T09:25:26;94991.34;;;31.94;37.19
20027;BME280;10174;42.688;23.344;2023-07-31T09:30:19;94931.34;;;31.62;37.15
20027;BME280;10174;42.688;23.344;2023-07-31T09:32:46;94963.41;;;32.19;36.62
20027;BME280;10174;42.688;23.344;2023-07-31T09:35:21;94982.34;;;31.83;37.94
20027;BME280;10174;42.688;23.344;2023-07-31T09:37:54;94965.72;;;33.28;35.60
20027;BME280;10174;42.688;23.344;2023-07-31T09:40:31;94973.19;;;32.31;36.05
20027;BME280;10174;42.688;23.344;2023-07-31T09:43:01;94973.56;;;31.28;38.41
20027;BME280;10174;42.688;23.344;2023-07-31T09:45:27;94958.63;;;31.07;38.82
20027;BME280;10174;42.688;23.344;2023-07-31T09:47:54;94965.69;;;29.84;40.37
20027;BME280;10174;42.688;23.344;2023-07-31T09:50:21;94966.84;;;29.29;41.99
20027;BME280;10174;42.688;23.344;2023-07-31T09:52:47;94928.81;;;30.30;39.83
20027;BME280;10174;42.688;23.344;2023-07-31T09:55:12;94911.91;;;29.85;39.63
20027;BME280;10174;42.688;23.344;2023-07-31T09:57:47;94928.78;;;28.86;41.74
20027;BME280;10174;42.688;23.344;2023-07-31T10:00:15;94970.66;;;28.99;42.84
20027;BME280;10174;42.688;23.344;2023-07-31T10:02:41;94972.78;;;29.63;40.77
20027;BME280;10174;42.688;23.344;2023-07-31T10:05:07;94969.22;;;29.59;40.41
20027;BME280;10174;42.688;23.344;2023-07-31T10:07:37;94933.97;;;28.11;43.61
20027;BME280;10174;42.688;23.344;2023-07-31T10:10:07;94971.13;;;28.24;42.82
20027;BME280;10174;42.688;23.344;2023-07-31T10:12:34;94951.00;;;29.33;41.39
20027;BME280;10174;42.688;23.344;2023-07-31T10:15:01;94972.38;;;29.61;39.20
20027;BME280;10174;42.688;23.344;2023-07-31T10:17:29;94926.25;;;28.52;40.97
20027;BME280;10174;42.688;23.344;2023-07-31T10:19:56;94961.63;;;28.25;42.45
20027;BME280;10174;42.688;23.344;2023-07-31T10:22:23;94879.91;;;29.41;39.04
20027;BME280;10174;42.688;23.344;2023-07-31T10:24:50;94890.09;;;28.90;40.03
20027;BME280;10174;42.688;23.344;2023-07-31T10:27:15;94883.81;;;27.42;42.52
20027;BME280;10174;42.688;23.344;2023-07-31T10:29:43;94944.63;;;27.60;43.08
20027;BME280;10174;42.688;23.344;2023-07-31T10:32:10;94934.44;;;29.80;39.53
20027;BME280;10174;42.688;23.344;2023-07-31T10:34:39;94956.59;;;29.91;38.91
20027;BME280;10174;42.688;23.344;2023-07-31T10:40:25;94949.53;;;33.97;31.84
20027;BME280;10174;42.688;23.344;2023-07-31T10:42:54;94947.16;;;33.17;32.84
20027;BME280;10174;42.688;23.344;2023-07-31T10:45:34;94944.31;;;33.25;32.68
20027;BME280;10174;42.688;23.344;2023-07-31T10:48:06;94922.09;;;31.23;34.75
20027;BME280;10174;42.688;23.344;2023-07-31T10:50:37;94933.63;;;31.15;36.26
20027;BME280;10174;42.688;23.344;2023-07-31T10:53:03;94942.50;;;31.55;34.81
20027;BME280;10174;42.688;23.344;2023-07-31T10:55:41;94947.75;;;31.38;34.96
20027;BME280;10174;42.688;23.344;2023-07-31T10:58:13;94931.16;;;28.91;38.79
20027;BME280;10174;42.688;23.344;2023-07-31T11:00:39;94935.81;;;28.66;39.92
20027;BME280;10174;42.688;23.344;2023-07-31T11:03:13;94939.78;;;28.68;41.13
20027;BME280;10174;42.688;23.344;2023-07-31T11:08:20;94935.97;;;30.31;36.88
20027;BME280;10174;42.688;23.344;2023-07-31T11:10:48;94921.56;;;30.76;35.61
20027;BME280;10174;42.688;23.344;2023-07-31T11:13:13;94928.25;;;32.40;33.76
20027;BME280;10174;42.688;23.344;2023-07-31T11:15:39;94922.72;;;32.74;32.75
20027;BME280;10174;42.688;23.344;2023-07-31T11:18:05;94903.88;;;32.85;31.69
20027;BME280;10174;42.688;23.344;2023-07-31T11:20:35;94870.59;;;31.22;33.59
20027;BME280;10174;42.688;23.344;2023-07-31T11:23:05;94916.16;;;30.29;35.21
20027;BME280;10174;42.688;23.344;2023-07-31T11:25:32;94908.34;;;29.59;36.81
20027;BME280;10174;42.688;23.344;2023-07-31T11:28:14;94908.91;;;30.71;35.20
20027;BME280;10174;42.688;23.344;2023-07-31T11:30:41;94834.81;;;29.87;36.01
20027;BME280;10174;42.688;23.344;2023-07-31T11:33:08;94915.44;;;30.03;36.36
20027;BME280;10174;42.688;23.344;2023-07-31T11:35:45;94916.97;;;30.26;35.46
20027;BME280;10174;42.688;23.344;2023-07-31T11:38:32;94911.47;;;30.05;36.09
20027;BME280;10174;42.688;23.344;2023-07-31T11:41:02;94890.06;;;30.16;35.40
20027;BME280;10174;42.688;23.344;2023-07-31T11:43:28;94901.09;;;30.37;35.83
20027;BME280;10174;42.688;23.344;2023-07-31T11:45:59;94915.84;;;29.77;37.39
20027;BME280;10174;42.688;23.344;2023-07-31T11:48:26;94923.06;;;28.43;40.17
20027;BME280;10174;42.688;23.344;2023-07-31T11:50:54;94803.53;;;27.54;40.34
20027;BME280;10174;42.688;23.344;2023-07-31T11:53:57;94906.50;;;28.36;40.38
20027;BME280;10174;42.688;23.344;2023-07-31T11:56:17;94907.31;;;28.47;39.79
20027;BME280;10174;42.688;23.344;2023-07-31T11:58:46;94903.13;;;28.86;39.20
20027;BME280;10174;42.688;23.344;2023-07-31T12:01:11;94814.88;;;28.08;39.44
20027;BME280;10174;42.688;23.344;2023-07-31T12:03:38;94828.63;;;28.05;39.64
20027;BME280;10174;42.688;23.344;2023-07-31T12:06:04;94909.19;;;28.25;40.22
20027;BME280;10174;42.688;23.344;2023-07-31T12:08:30;94908.34;;;28.14;40.37
20027;BME280;10174;42.688;23.344;2023-07-31T12:11:05;94897.56;;;28.75;40.20
20027;BME280;10174;42.688;23.344;2023-07-31T12:13:31;94849.00;;;28.67;39.57
20027;BME280;10174;42.688;23.344;2023-07-31T12:15:59;94902.56;;;28.44;40.91
20027;BME280;10174;42.688;23.344;2023-07-31T12:18:29;94849.31;;;28.51;39.61
20027;BME280;10174;42.688;23.344;2023-07-31T12:20:58;94880.00;;;28.28;40.76
20027;BME280;10174;42.688;23.344;2023-07-31T12:23:28;94895.81;;;27.68;42.01
20027;BME280;10174;42.688;23.344;2023-07-31T12:28:37;94863.59;;;27.86;40.64
20027;BME280;10174;42.688;23.344;2023-07-31T12:31:05;94881.72;;;27.80;40.72
20027;BME280;10174;42.688;23.344;2023-07-31T12:33:35;94897.63;;;27.98;40.63
20027;BME280;10174;42.688;23.344;2023-07-31T12:36:03;94884.13;;;27.93;41.36
20027;BME280;10174;42.688;23.344;2023-07-31T12:38:29;94882.53;;;27.84;40.90
20027;BME280;10174;42.688;23.344;2023-07-31T12:40:55;94894.50;;;28.06;40.55
20027;BME280;10174;42.688;23.344;2023-07-31T12:43:20;94884.22;;;28.03;40.47
20027;BME280;10174;42.688;23.344;2023-07-31T12:45:46;94868.44;;;28.00;40.33
20027;BME280;10174;42.688;23.344;2023-07-31T12:48:12;94781.50;;;27.62;39.68
20027;BME280;10174;42.688;23.344;2023-07-31T12:50:38;94871.25;;;28.04;40.57
20027;BME280;10174;42.688;23.344;2023-07-31T12:53:04;94864.19;;;27.54;41.70
20027;BME280;10174;42.688;23.344;2023-07-31T12:55:30;94866.09;;;27.43;41.69
20027;BME280;10174;42.688;23.344;2023-07-31T12:57:56;94847.66;;;27.06;42.16
20027;BME280;10174;42.688;23.344;2023-07-31T13:00:22;94859.44;;;27.48;41.69
20027;BME280;10174;42.688;23.344;2023-07-31T13:02:47;94863.59;;;27.79;41.16
20027;BME280;10174;42.688;23.344;2023-07-31T13:05:13;94852.56;;;27.86;41.24